createdAt,value
2019-04-05T00:03:43.689Z,87.20
2019-04-05T00:07:52.558Z,87.20
2019-04-05T00:12:01.349Z,87.00
2019-04-05T00:16:10.750Z,86.80
2019-04-05T00:20:19.643Z,86.60
2019-04-05T00:24:28.555Z,86.50
2019-04-05T00:28:37.341Z,86.50
2019-04-05T00:32:46.277Z,86.50
2019-04-05T00:36:55.126Z,86.20
2019-04-05T00:41:04.439Z,86.20
2019-04-05T00:45:13.675Z,86.30
2019-04-05T00:49:22.646Z,86.30
2019-04-05T00:53:31.624Z,86.70
2019-04-05T00:57:40.471Z,86.80
2019-04-05T01:01:49.447Z,86.90
2019-04-05T01:05:58.453Z,86.90
2019-04-05T01:10:08.166Z,86.80
2019-04-05T01:14:17.882Z,86.80
2019-04-05T01:18:27.032Z,86.40
2019-04-05T01:22:36.253Z,86.40
2019-04-05T01:26:46.151Z,86.80
2019-04-05T01:30:55.317Z,86.60
2019-04-05T01:35:04.463Z,86.40
2019-04-05T01:39:13.310Z,86.30
2019-04-05T01:43:22.830Z,86.20
2019-04-05T01:47:31.685Z,86.50
2019-04-05T01:51:40.962Z,86.50
2019-04-05T01:55:49.836Z,86.30
2019-04-05T01:59:58.645Z,86.40
2019-04-05T02:04:07.497Z,86.40
2019-04-05T02:08:16.682Z,86.40
2019-04-05T02:12:25.664Z,86.60
2019-04-05T02:16:34.548Z,86.70
2019-04-05T02:20:43.382Z,86.70
2019-04-05T02:24:52.291Z,86.60
2019-04-05T02:29:01.211Z,86.60
2019-04-05T02:33:10.096Z,86.70
2019-04-05T02:37:19.016Z,86.90
2019-04-05T02:41:29.646Z,86.90
2019-04-05T02:45:39.999Z,87.10
2019-04-05T02:49:49.692Z,87.20
2019-04-05T02:53:59.806Z,87.00
2019-04-05T02:58:10.334Z,87.00
2019-04-05T03:02:19.715Z,87.10
2019-04-05T03:06:28.687Z,87.30
2019-04-05T03:11:13.070Z,87.30
2019-04-05T03:15:22.019Z,87.20
2019-04-05T03:19:33.344Z,87.50
2019-04-05T03:23:43.966Z,87.60
2019-04-05T03:27:52.882Z,87.60
2019-04-05T03:32:02.472Z,87.70
2019-04-05T03:36:11.870Z,87.70
2019-04-05T03:40:20.790Z,87.80
2019-04-05T03:44:29.766Z,87.80
2019-04-05T03:48:39.278Z,87.60
2019-04-05T03:52:48.708Z,87.60
2019-04-05T03:56:57.633Z,87.70
2019-04-05T04:01:06.853Z,87.90
2019-04-05T04:05:15.772Z,87.70
2019-04-05T04:09:24.718Z,87.70
2019-04-05T04:13:33.900Z,88.00
2019-04-05T04:17:43.848Z,87.90
2019-04-05T04:22:28.388Z,87.70
2019-04-05T04:26:37.522Z,87.80
2019-04-05T04:30:46.329Z,88.00
2019-04-05T04:34:55.609Z,87.90
2019-04-05T04:39:06.446Z,87.80
2019-04-05T04:43:16.105Z,87.50
2019-04-05T04:47:27.375Z,87.70
2019-04-05T04:51:36.536Z,88.10
2019-04-05T04:55:45.605Z,88.30
2019-04-05T04:59:54.748Z,88.30
2019-04-05T05:04:04.465Z,88.30
2019-04-05T05:08:13.782Z,88.60
2019-04-05T05:12:22.945Z,88.80
2019-04-05T05:16:32.218Z,88.80
2019-04-05T05:20:42.709Z,88.90
2019-04-05T05:24:52.071Z,89.00
2019-04-05T05:29:01.230Z,88.60
2019-04-05T05:33:10.747Z,89.30
2019-04-05T05:37:20.559Z,89.40
2019-04-05T05:41:29.485Z,89.30
2019-04-05T05:45:38.435Z,89.40
2019-04-05T05:49:47.552Z,89.00
2019-04-05T05:53:56.573Z,88.80
2019-04-05T05:58:05.507Z,88.70
2019-04-05T06:02:14.915Z,88.90
2019-04-05T06:06:23.945Z,88.80
2019-04-05T06:10:32.726Z,88.80
2019-04-05T06:14:41.590Z,88.40
2019-04-05T06:18:50.552Z,87.70
2019-04-05T06:22:59.636Z,87.30
2019-04-05T06:27:08.513Z,86.50
2019-04-05T06:31:17.316Z,85.80
2019-04-05T06:35:26.438Z,85.20
2019-04-05T06:39:35.290Z,84.60
2019-04-05T06:43:44.142Z,83.60
2019-04-05T06:47:52.997Z,82.80
2019-04-05T06:52:01.822Z,81.90
2019-04-05T06:56:10.699Z,81.20
2019-04-05T07:00:24.857Z,80.60
2019-04-05T07:04:33.754Z,80.50
2019-04-05T07:08:53.039Z,80.30
2019-04-05T07:12:53.445Z,79.80
2019-04-05T07:17:02.291Z,79.00
2019-04-05T07:21:11.494Z,77.70
2019-04-05T07:25:20.359Z,76.20
2019-04-05T07:29:29.238Z,74.60
2019-04-05T07:33:38.388Z,74.20
2019-04-05T07:37:47.186Z,74.20
2019-04-05T07:41:56.256Z,73.70
2019-04-05T07:46:05.195Z,73.10
2019-04-05T07:50:14.536Z,73.40
2019-04-05T07:54:23.373Z,73.40
2019-04-05T07:58:32.174Z,72.40
2019-04-05T08:02:41.303Z,71.50
2019-04-05T08:06:51.251Z,70.30
2019-04-05T08:11:00.406Z,70.40
2019-04-05T08:15:09.316Z,69.90
2019-04-05T08:19:18.194Z,68.80
2019-04-05T08:23:27.099Z,67.70
2019-04-05T08:27:35.899Z,64.60
2019-04-05T08:31:44.846Z,62.00
2019-04-05T08:35:53.649Z,60.40
2019-04-05T08:40:02.815Z,60.40
2019-04-05T08:44:11.795Z,60.00
2019-04-05T08:48:21.193Z,59.80
2019-04-05T08:52:30.538Z,58.30
2019-04-05T08:56:39.362Z,59.20
2019-04-05T09:00:48.295Z,60.00
2019-04-05T09:04:57.131Z,60.60
2019-04-05T09:09:07.782Z,59.70
2019-04-05T09:13:16.659Z,58.50
2019-04-05T09:17:25.452Z,58.60
2019-04-05T09:21:34.591Z,56.50
2019-04-05T09:25:44.333Z,56.90
2019-04-05T09:29:53.146Z,55.70
2019-04-05T09:34:02.903Z,55.00
2019-04-05T09:38:11.711Z,53.00
2019-04-05T09:42:20.553Z,52.40
2019-04-05T09:46:29.431Z,52.80
2019-04-05T09:50:38.677Z,53.20
2019-04-05T09:54:47.535Z,52.70
2019-04-05T09:58:56.318Z,52.80
2019-04-05T10:03:05.247Z,53.10
2019-04-05T10:07:14.346Z,53.20
2019-04-05T10:11:23.256Z,50.50
2019-04-05T10:15:32.158Z,51.70
2019-04-05T10:19:49.742Z,51.30
2019-04-05T10:23:51.719Z,51.30
2019-04-05T10:28:00.518Z,50.30
2019-04-05T10:32:09.466Z,49.00
2019-04-05T10:36:20.004Z,48.40
2019-04-05T10:40:29.241Z,45.70
2019-04-05T10:44:38.030Z,47.30
2019-04-05T10:48:46.836Z,47.60
2019-04-05T10:52:55.693Z,48.20
2019-04-05T10:57:04.734Z,49.30
2019-04-05T11:01:13.753Z,49.80
2019-04-05T11:05:22.614Z,50.50
2019-04-05T11:09:31.825Z,51.00
2019-04-05T11:13:40.686Z,50.30
2019-04-05T11:17:49.788Z,49.50
2019-04-05T11:21:58.577Z,49.60
2019-04-05T11:26:07.470Z,49.50
2019-04-05T11:30:28.167Z,49.20
2019-04-05T11:39:33.996Z,49.60
2019-04-05T11:43:43.992Z,50.40
2019-04-05T11:47:55.670Z,52.60
2019-04-05T11:52:09.039Z,53.30
2019-04-05T11:56:20.045Z,54.20
2019-04-05T12:00:36.899Z,53.70
2019-04-05T12:04:46.094Z,54.40
2019-04-05T12:08:55.062Z,55.10
2019-04-05T12:13:04.328Z,55.30
2019-04-05T12:17:13.218Z,55.20
2019-04-05T12:21:22.080Z,54.50
2019-04-05T12:25:31.789Z,54.00
2019-04-05T12:29:41.909Z,53.90
2019-04-05T12:33:52.253Z,54.50
2019-04-05T12:38:01.434Z,55.10
2019-04-05T12:42:12.107Z,56.10
2019-04-05T12:46:21.473Z,57.20
2019-04-05T12:50:30.491Z,57.70
2019-04-05T12:54:39.367Z,58.10
2019-04-05T12:58:48.190Z,58.40
2019-04-05T13:02:57.437Z,58.60
2019-04-05T13:07:07.232Z,58.80
2019-04-05T13:11:16.135Z,58.90
2019-04-05T13:15:25.299Z,59.00
2019-04-05T13:19:34.326Z,59.40
2019-04-05T13:23:43.493Z,58.90
2019-04-05T13:27:52.747Z,59.00
2019-04-05T13:32:02.229Z,59.70
2019-04-05T13:36:11.315Z,60.40
2019-04-05T13:40:20.569Z,60.80
2019-04-05T13:44:31.938Z,61.40
2019-04-05T13:48:40.721Z,61.20
2019-04-05T13:52:49.819Z,61.60
2019-04-05T13:56:58.730Z,61.30
2019-04-05T14:01:08.338Z,61.50
2019-04-05T14:05:17.755Z,61.40
2019-04-05T14:09:27.053Z,61.50
2019-04-05T14:13:37.753Z,61.40
2019-04-05T14:17:49.113Z,61.50
2019-04-05T14:22:07.872Z,61.20
2019-04-05T14:26:08.538Z,61.90
2019-04-05T14:30:17.645Z,62.60
2019-04-05T14:34:26.721Z,62.90
2019-04-05T14:38:35.836Z,62.90
2019-04-05T14:42:44.877Z,64.40
2019-04-05T14:46:57.783Z,65.20
2019-04-05T14:51:05.434Z,66.00
2019-04-05T14:55:14.757Z,66.50
2019-04-05T14:59:23.974Z,66.60
2019-04-05T15:03:33.107Z,66.10
2019-04-05T15:07:42.347Z,64.30
2019-04-05T15:11:51.539Z,64.30
2019-04-05T15:16:00.519Z,64.20
2019-04-05T15:20:10.139Z,63.80
2019-04-05T15:24:19.105Z,65.30
2019-04-05T15:28:28.086Z,65.20
2019-04-05T15:32:37.954Z,65.20
2019-04-05T15:36:46.898Z,65.80
2019-04-05T15:40:56.025Z,67.00
2019-04-05T15:45:07.194Z,67.70
2019-04-05T15:49:16.310Z,68.20
2019-04-05T15:53:25.123Z,68.60
2019-04-05T15:57:34.399Z,68.40
2019-04-05T16:01:43.890Z,68.40
2019-04-05T16:05:52.943Z,68.50
2019-04-05T16:10:01.743Z,69.00
2019-04-05T16:14:10.772Z,68.40
2019-04-05T16:18:19.997Z,69.10
2019-04-05T16:22:31.429Z,69.40
2019-04-05T16:26:39.914Z,69.90
2019-04-05T16:30:48.984Z,70.90
2019-04-05T16:34:57.883Z,70.60
2019-04-05T16:39:10.606Z,71.20
2019-04-05T16:43:19.894Z,71.30
2019-04-05T16:47:28.688Z,71.60
2019-04-05T16:51:37.603Z,71.90
2019-04-05T16:55:46.485Z,71.90
2019-04-05T16:59:55.389Z,72.00
2019-04-05T17:04:04.618Z,72.20
2019-04-05T17:08:13.432Z,72.50
2019-04-05T17:12:22.378Z,72.70
2019-04-05T17:16:31.267Z,73.10
2019-04-05T17:20:40.095Z,73.20
2019-04-05T17:24:49.465Z,73.40
2019-04-05T17:28:58.371Z,73.40
2019-04-05T17:33:07.231Z,73.70
2019-04-05T17:37:16.157Z,74.00
2019-04-05T17:41:25.403Z,74.50
2019-04-05T17:45:35.341Z,74.70
2019-04-05T17:49:44.435Z,75.40
2019-04-05T17:53:53.902Z,75.50
2019-04-05T17:58:05.784Z,75.80
2019-04-05T18:02:16.030Z,76.30
2019-04-05T18:06:25.273Z,76.40
2019-04-05T18:10:34.305Z,76.70
2019-04-05T18:14:43.134Z,76.80
2019-04-05T18:18:52.696Z,77.40
2019-04-05T18:23:01.640Z,77.90
2019-04-05T18:27:10.926Z,78.20
2019-04-05T18:31:20.195Z,78.30
2019-04-05T18:35:29.087Z,78.70
2019-04-05T18:39:37.992Z,79.00
2019-04-05T18:43:46.790Z,79.50
2019-04-05T18:47:55.786Z,79.80
2019-04-05T18:52:04.698Z,80.80
2019-04-05T18:56:13.802Z,81.70
2019-04-05T19:00:22.778Z,82.30
2019-04-05T19:04:31.623Z,83.00
2019-04-05T19:08:40.454Z,83.60
2019-04-05T19:12:49.536Z,83.90
2019-04-05T19:16:59.328Z,84.10
2019-04-05T19:21:08.783Z,84.40
2019-04-05T19:25:18.011Z,85.00
2019-04-05T19:29:27.157Z,85.70
2019-04-05T19:50:19.302Z,87.20
2019-04-05T19:54:28.189Z,87.50
2019-04-05T19:58:37.323Z,88.10
2019-04-05T20:02:46.647Z,88.60
2019-04-05T20:06:58.581Z,89.00
2019-04-05T20:11:06.169Z,89.40
2019-04-05T20:15:15.228Z,89.60
2019-04-05T20:19:24.062Z,90.30
2019-04-05T20:23:33.207Z,90.20
2019-04-05T20:27:42.242Z,90.30
2019-04-05T20:31:51.188Z,90.50
2019-04-05T20:36:00.035Z,90.60
2019-04-05T20:40:08.970Z,90.50
2019-04-05T20:44:18.099Z,90.50
2019-04-05T20:48:27.137Z,90.70
2019-04-05T20:52:36.198Z,90.70
2019-04-05T20:56:45.098Z,90.80
2019-04-05T21:00:54.213Z,90.90
2019-04-05T21:05:03.407Z,90.90
2019-04-05T21:09:12.688Z,90.90
2019-04-05T21:13:21.734Z,90.90
2019-04-05T21:17:30.690Z,90.90
2019-04-05T21:21:39.579Z,90.80
2019-04-05T21:25:48.606Z,90.80
2019-04-05T21:29:57.413Z,90.80
2019-04-05T21:34:06.240Z,90.90
2019-04-05T21:38:15.207Z,91.00
2019-04-05T21:42:24.296Z,91.00
2019-04-05T21:46:33.166Z,91.10
2019-04-05T21:50:42.125Z,91.00
2019-04-05T21:54:50.942Z,91.00
2019-04-05T21:58:59.822Z,90.90
2019-04-05T22:03:08.714Z,90.90
2019-04-05T22:07:17.770Z,90.90
2019-04-05T22:11:27.887Z,90.90
2019-04-05T22:15:36.880Z,90.90
2019-04-05T22:19:45.953Z,91.00
2019-04-05T22:23:55.297Z,91.00
2019-04-05T22:28:04.453Z,91.00
2019-04-05T22:32:13.816Z,90.90
2019-04-05T22:36:22.722Z,91.00
2019-04-05T22:40:31.778Z,91.00
2019-04-05T22:44:41.673Z,91.10
2019-04-05T22:48:50.773Z,91.10
2019-04-05T22:53:00.009Z,91.10
2019-04-05T22:57:08.824Z,91.00
2019-04-05T23:01:17.969Z,91.20
2019-04-05T23:05:26.776Z,91.20
2019-04-05T23:09:35.590Z,91.30
2019-04-05T23:13:44.531Z,91.20
2019-04-05T23:17:53.344Z,91.30
2019-04-05T23:22:02.159Z,91.30
2019-04-05T23:26:11.396Z,91.20
2019-04-05T23:30:22.271Z,91.20
2019-04-05T23:34:31.463Z,91.20
2019-04-05T23:38:40.262Z,91.20
2019-04-05T23:42:49.208Z,91.20
2019-04-05T23:46:58.292Z,91.10
2019-04-05T23:51:07.219Z,91.00
2019-04-05T23:55:16.062Z,91.00
2019-04-05T23:59:24.862Z,90.80
